sensor_id;sensor_type;location;lat;lon;timestamp;pressure;altitude;pressure_sealevel;temperature;humidity
80945;BME280;70400;50.934;11.590;2023-07-29T00:00:12;99416.75;;;20.45;71.79
80945;BME280;70400;50.934;11.590;2023-07-29T00:01:04;99418.78;;;20.49;72.00
80945;BME280;70400;50.934;11.590;2023-07-29T00:01:55;99414.97;;;20.38;71.44
80945;BME280;70400;50.934;11.590;2023-07-29T00:02:45;99412.81;;;20.47;71.89
80945;BME280;70400;50.934;11.590;2023-07-29T00:03:36;99419.06;;;20.41;72.06
80945;BME280;70400;50.934;11.590;2023-07-29T00:04:27;99418.91;;;20.36;72.16
80945;BME280;70400;50.934;11.590;2023-07-29T00:05:18;99407.63;;;20.27;72.48
80945;BME280;70400;50.934;11.590;2023-07-29T00:06:09;99411.75;;;20.30;72.50
80945;BME280;70400;50.934;11.590;2023-07-29T00:07:00;99411.09;;;20.34;71.59
80945;BME280;70400;50.934;11.590;2023-07-29T00:07:51;99407.38;;;20.35;71.83
80945;BME280;70400;50.934;11.590;2023-07-29T00:08:42;99412.75;;;20.35;71.80
80945;BME280;70400;50.934;11.590;2023-07-29T00:09:33;99414.41;;;20.30;72.47
80945;BME280;70400;50.934;11.590;2023-07-29T00:10:24;99411.16;;;20.28;72.20
80945;BME280;70400;50.934;11.590;2023-07-29T00:11:15;99413.56;;;20.36;72.17
80945;BME280;70400;50.934;11.590;2023-07-29T00:12:06;99411.53;;;20.31;71.38
80945;BME280;70400;50.934;11.590;2023-07-29T00:12:57;99416.69;;;20.33;72.05
80945;BME280;70400;50.934;11.590;2023-07-29T00:13:47;99412.03;;;20.22;72.94
80945;BME280;70400;50.934;11.590;2023-07-29T00:14:41;99408.03;;;20.31;72.43
80945;BME280;70400;50.934;11.590;2023-07-29T00:15:32;99408.75;;;20.20;72.89
80945;BME280;70400;50.934;11.590;2023-07-29T00:16:22;99409.13;;;20.23;72.97
80945;BME280;70400;50.934;11.590;2023-07-29T00:17:13;99417.53;;;20.27;72.63
80945;BME280;70400;50.934;11.590;2023-07-29T00:18:04;99417.38;;;20.22;72.94
80945;BME280;70400;50.934;11.590;2023-07-29T00:18:55;99420.38;;;20.32;72.35
80945;BME280;70400;50.934;11.590;2023-07-29T00:19:46;99422.44;;;20.30;72.71
80945;BME280;70400;50.934;11.590;2023-07-29T00:20:37;99413.44;;;20.24;73.05
80945;BME280;70400;50.934;11.590;2023-07-29T00:21:28;99412.84;;;20.22;72.54
80945;BME280;70400;50.934;11.590;2023-07-29T00:22:19;99420.56;;;20.12;73.72
80945;BME280;70400;50.934;11.590;2023-07-29T00:23:10;99423.31;;;20.05;73.75
80945;BME280;70400;50.934;11.590;2023-07-29T00:24:01;99426.41;;;20.02;74.18
80945;BME280;70400;50.934;11.590;2023-07-29T00:24:52;99422.91;;;20.02;73.78
80945;BME280;70400;50.934;11.590;2023-07-29T00:25:48;99419.25;;;19.96;74.26
80945;BME280;70400;50.934;11.590;2023-07-29T00:26:39;99423.16;;;20.00;74.16
80945;BME280;70400;50.934;11.590;2023-07-29T00:27:29;99428.25;;;20.02;73.79
80945;BME280;70400;50.934;11.590;2023-07-29T00:28:20;99431.09;;;20.07;73.82
80945;BME280;70400;50.934;11.590;2023-07-29T00:29:13;99425.75;;;20.07;73.87
80945;BME280;70400;50.934;11.590;2023-07-29T00:30:04;99429.47;;;20.06;73.72
80945;BME280;70400;50.934;11.590;2023-07-29T00:30:56;99431.34;;;20.05;74.05
80945;BME280;70400;50.934;11.590;2023-07-29T00:31:47;99422.09;;;20.01;74.02
80945;BME280;70400;50.934;11.590;2023-07-29T00:32:38;99426.41;;;20.02;74.23
80945;BME280;70400;50.934;11.590;2023-07-29T00:33:29;99425.53;;;20.08;73.17
80945;BME280;70400;50.934;11.590;2023-07-29T00:34:20;99429.78;;;20.16;73.73
80945;BME280;70400;50.934;11.590;2023-07-29T00:35:11;99427.56;;;20.13;73.66
80945;BME280;70400;50.934;11.590;2023-07-29T00:36:02;99427.31;;;20.14;73.48
80945;BME280;70400;50.934;11.590;2023-07-29T00:36:53;99419.25;;;19.96;74.45
80945;BME280;70400;50.934;11.590;2023-07-29T00:37:44;99421.28;;;20.01;74.15
80945;BME280;70400;50.934;11.590;2023-07-29T00:38:35;99427.44;;;20.01;74.53
80945;BME280;70400;50.934;11.590;2023-07-29T00:39:26;99438.72;;;20.10;73.84
80945;BME280;70400;50.934;11.590;2023-07-29T00:40:21;99425.91;;;20.12;74.06
80945;BME280;70400;50.934;11.590;2023-07-29T00:41:13;99431.88;;;20.14;73.38
80945;BME280;70400;50.934;11.590;2023-07-29T00:42:05;99426.41;;;20.02;73.57
80945;BME280;70400;50.934;11.590;2023-07-29T00:42:56;99424.06;;;20.12;73.24
80945;BME280;70400;50.934;11.590;2023-07-29T00:43:46;99430.59;;;20.16;72.88
80945;BME280;70400;50.934;11.590;2023-07-29T00:44:37;99428.00;;;20.10;73.81
80945;BME280;70400;50.934;11.590;2023-07-29T00:45:29;99428.59;;;20.12;73.44
80945;BME280;70400;50.934;11.590;2023-07-29T00:46:20;99426.78;;;20.06;73.98
80945;BME280;70400;50.934;11.590;2023-07-29T00:47:11;99425.59;;;20.02;74.44
80945;BME280;70400;50.934;11.590;2023-07-29T00:48:03;99424.97;;;20.00;74.03
80945;BME280;70400;50.934;11.590;2023-07-29T00:48:56;99420.84;;;20.04;74.05
80945;BME280;70400;50.934;11.590;2023-07-29T00:49:48;99419.53;;;20.13;73.40
80945;BME280;70400;50.934;11.590;2023-07-29T00:50:42;99424.28;;;20.11;73.72
80945;BME280;70400;50.934;11.590;2023-07-29T00:51:33;99425.06;;;20.18;73.15
80945;BME280;70400;50.934;11.590;2023-07-29T00:52:24;99418.28;;;20.15;73.40
80945;BME280;70400;50.934;11.590;2023-07-29T00:53:18;99419.44;;;20.20;73.73
80945;BME280;70400;50.934;11.590;2023-07-29T00:54:09;99427.13;;;20.16;73.77
80945;BME280;70400;50.934;11.590;2023-07-29T00:54:59;99422.47;;;20.05;74.29
80945;BME280;70400;50.934;11.590;2023-07-29T00:55:50;99425.34;;;20.10;74.44
80945;BME280;70400;50.934;11.590;2023-07-29T00:56:41;99415.81;;;20.14;74.26
80945;BME280;70400;50.934;11.590;2023-07-29T00:57:33;99417.50;;;20.08;74.00
80945;BME280;70400;50.934;11.590;2023-07-29T00:58:24;99412.31;;;20.13;73.18
80945;BME280;70400;50.934;11.590;2023-07-29T00:59:15;99416.03;;;20.12;74.18
80945;BME280;70400;50.934;11.590;2023-07-29T01:00:06;99416.38;;;20.23;73.30
80945;BME280;70400;50.934;11.590;2023-07-29T01:00:59;99412.69;;;20.17;73.49
80945;BME280;70400;50.934;11.590;2023-07-29T01:01:50;99425.69;;;20.13;73.79
80945;BME280;70400;50.934;11.590;2023-07-29T01:02:45;99419.75;;;20.11;74.09
80945;BME280;70400;50.934;11.590;2023-07-29T01:03:36;99419.09;;;20.16;73.35
80945;BME280;70400;50.934;11.590;2023-07-29T01:04:27;99425.25;;;20.16;73.21
80945;BME280;70400;50.934;11.590;2023-07-29T01:05:18;99425.53;;;20.08;74.35
80945;BME280;70400;50.934;11.590;2023-07-29T01:07:19;99417.88;;;20.12;73.65
80945;BME280;70400;50.934;11.590;2023-07-29T01:08:31;99420.94;;;20.15;73.42
80945;BME280;70400;50.934;11.590;2023-07-29T01:09:30;99416.78;;;20.20;73.83
80945;BME280;70400;50.934;11.590;2023-07-29T01:13:20;99422.56;;;20.16;73.26
80945;BME280;70400;50.934;11.590;2023-07-29T01:14:45;99420.72;;;20.17;73.50
80945;BME280;70400;50.934;11.590;2023-07-29T01:17:33;99413.63;;;20.04;73.44
80945;BME280;70400;50.934;11.590;2023-07-29T01:18:31;99416.25;;;20.11;72.75
80945;BME280;70400;50.934;11.590;2023-07-29T01:20:54;99424.00;;;20.19;72.65
80945;BME280;70400;50.934;11.590;2023-07-29T01:21:45;99421.97;;;20.14;73.61
80945;BME280;70400;50.934;11.590;2023-07-29T01:22:37;99424.72;;;20.08;73.98
80945;BME280;70400;50.934;11.590;2023-07-29T01:23:32;99415.81;;;20.14;72.83
80945;BME280;70400;50.934;11.590;2023-07-29T01:24:23;99421.94;;;20.21;72.65
80945;BME280;70400;50.934;11.590;2023-07-29T01:25:14;99420.03;;;20.03;74.13
80945;BME280;70400;50.934;11.590;2023-07-29T01:26:05;99416.91;;;20.06;73.79
80945;BME280;70400;50.934;11.590;2023-07-29T01:26:56;99415.44;;;20.10;73.73
80945;BME280;70400;50.934;11.590;2023-07-29T01:27:49;99417.81;;;20.19;73.08
80945;BME280;70400;50.934;11.590;2023-07-29T01:28:42;99414.78;;;20.15;73.03
80945;BME280;70400;50.934;11.590;2023-07-29T01:29:33;99420.78;;;20.10;72.98
80945;BME280;70400;50.934;11.590;2023-07-29T01:30:30;99418.88;;;20.17;73.30
80945;BME280;70400;50.934;11.590;2023-07-29T01:31:37;99410.28;;;20.09;73.44
80945;BME280;70400;50.934;11.590;2023-07-29T01:33:38;99410.72;;;20.06;73.70
80945;BME280;70400;50.934;11.590;2023-07-29T01:34:36;99409.53;;;20.02;73.55
80945;BME280;70400;50.934;11.590;2023-07-29T01:35:36;99407.13;;;19.93;74.02
80945;BME280;70400;50.934;11.590;2023-07-29T01:36:32;99406.25;;;20.00;73.23
80945;BME280;70400;50.934;11.590;2023-07-29T01:37:26;99408.59;;;19.89;74.23
80945;BME280;70400;50.934;11.590;2023-07-29T01:38:33;99418.97;;;20.04;73.13
80945;BME280;70400;50.934;11.590;2023-07-29T01:39:27;99408.72;;;20.01;73.59
80945;BME280;70400;50.934;11.590;2023-07-29T01:40:22;99407.66;;;20.02;73.86
80945;BME280;70400;50.934;11.590;2023-07-29T01:41:14;99417.09;;;20.05;73.38
80945;BME280;70400;50.934;11.590;2023-07-29T01:42:05;99409.31;;;20.03;73.92
80945;BME280;70400;50.934;11.590;2023-07-29T01:42:57;99405.22;;;20.01;73.77
80945;BME280;70400;50.934;11.590;2023-07-29T01:43:48;99404.81;;;19.97;74.15
80945;BME280;70400;50.934;11.590;2023-07-29T01:44:39;99408.88;;;20.06;73.19
80945;BME280;70400;50.934;11.590;2023-07-29T01:45:30;99410.94;;;20.04;73.06
80945;BME280;70400;50.934;11.590;2023-07-29T01:46:26;99405.59;;;20.04;73.47
80945;BME280;70400;50.934;11.590;2023-07-29T01:47:17;99410.41;;;19.95;74.00
80945;BME280;70400;50.934;11.590;2023-07-29T01:48:07;99411.22;;;19.96;74.07
80945;BME280;70400;50.934;11.590;2023-07-29T01:48:59;99399.81;;;19.82;74.62
80945;BME280;70400;50.934;11.590;2023-07-29T01:49:50;99404.59;;;19.73;75.51
80945;BME280;70400;50.934;11.590;2023-07-29T01:50:42;99406.44;;;19.80;75.11
80945;BME280;70400;50.934;11.590;2023-07-29T01:51:32;99409.91;;;19.80;75.03
80945;BME280;70400;50.934;11.590;2023-07-29T01:52:23;99412.41;;;19.75;75.18
80945;BME280;70400;50.934;11.590;2023-07-29T01:53:14;99411.16;;;19.78;74.79
80945;BME280;70400;50.934;11.590;2023-07-29T01:54:05;99411.16;;;19.78;75.02
80945;BME280;70400;50.934;11.590;2023-07-29T01:54:56;99414.44;;;19.80;74.66
80945;BME280;70400;50.934;11.590;2023-07-29T01:55:47;99414.84;;;19.77;75.28
80945;BME280;70400;50.934;11.590;2023-07-29T01:56:38;99406.66;;;19.71;75.14
80945;BME280;70400;50.934;11.590;2023-07-29T01:57:29;99400.06;;;19.74;74.80
80945;BME280;70400;50.934;11.590;2023-07-29T01:58:20;99403.75;;;19.80;74.82
80945;BME280;70400;50.934;11.590;2023-07-29T01:59:11;99397.78;;;19.78;75.08
80945;BME280;70400;50.934;11.590;2023-07-29T02:00:04;99400.13;;;19.67;75.73
80945;BME280;70400;50.934;11.590;2023-07-29T02:01:04;99398.44;;;19.66;75.47
80945;BME280;70400;50.934;11.590;2023-07-29T02:01:55;99400.38;;;19.59;75.55
80945;BME280;70400;50.934;11.590;2023-07-29T02:02:46;99400.94;;;19.61;75.58
80945;BME280;70400;50.934;11.590;2023-07-29T02:03:37;99401.75;;;19.68;75.21
80945;BME280;70400;50.934;11.590;2023-07-29T02:04:28;99399.31;;;19.67;74.83
80945;BME280;70400;50.934;11.590;2023-07-29T02:05:21;99401.31;;;19.71;74.74
80945;BME280;70400;50.934;11.590;2023-07-29T02:06:12;99400.53;;;19.64;74.78
80945;BME280;70400;50.934;11.590;2023-07-29T02:07:04;99405.47;;;19.67;74.41
80945;BME280;70400;50.934;11.590;2023-07-29T02:07:55;99404.00;;;19.71;74.08
80945;BME280;70400;50.934;11.590;2023-07-29T02:08:45;99405.84;;;19.71;74.74
80945;BME280;70400;50.934;11.590;2023-07-29T02:09:36;99400.72;;;19.69;74.63
80945;BME280;70400;50.934;11.590;2023-07-29T02:10:27;99403.03;;;19.59;75.57
80945;BME280;70400;50.934;11.590;2023-07-29T02:11:18;99406.28;;;19.61;74.67
80945;BME280;70400;50.934;11.590;2023-07-29T02:12:11;99398.50;;;19.60;75.01
80945;BME280;70400;50.934;11.590;2023-07-29T02:13:03;99403.22;;;19.64;75.35
80945;BME280;70400;50.934;11.590;2023-07-29T02:13:54;99398.16;;;19.49;75.94
80945;BME280;70400;50.934;11.590;2023-07-29T02:14:45;99396.56;;;19.42;76.02
80945;BME280;70400;50.934;11.590;2023-07-29T02:15:36;99393.06;;;19.41;75.46
80945;BME280;70400;50.934;11.590;2023-07-29T02:16:26;99389.50;;;19.54;75.71
80945;BME280;70400;50.934;11.590;2023-07-29T02:17:17;99390.94;;;19.50;75.37
80945;BME280;70400;50.934;11.590;2023-07-29T02:18:08;99381.50;;;19.47;75.57
80945;BME280;70400;50.934;11.590;2023-07-29T02:18:59;99386.03;;;19.47;75.49
80945;BME280;70400;50.934;11.590;2023-07-29T02:19:50;99386.22;;;19.52;75.12
80945;BME280;70400;50.934;11.590;2023-07-29T02:20:40;99386.84;;;19.47;75.46
80945;BME280;70400;50.934;11.590;2023-07-29T02:21:33;99386.31;;;19.39;76.20
80945;BME280;70400;50.934;11.590;2023-07-29T02:22:23;99384.66;;;19.38;76.42
80945;BME280;70400;50.934;11.590;2023-07-29T02:23:15;99385.69;;;19.37;75.85
80945;BME280;70400;50.934;11.590;2023-07-29T02:24:08;99385.09;;;19.35;76.19
80945;BME280;70400;50.934;11.590;2023-07-29T02:24:59;99393.91;;;19.35;76.37
80945;BME280;70400;50.934;11.590;2023-07-29T02:25:50;99387.28;;;19.44;75.28
80945;BME280;70400;50.934;11.590;2023-07-29T02:26:41;99395.94;;;19.46;75.62
80945;BME280;70400;50.934;11.590;2023-07-29T02:27:32;99388.97;;;19.39;75.91
80945;BME280;70400;50.934;11.590;2023-07-29T02:28:24;99385.06;;;19.41;75.36
80945;BME280;70400;50.934;11.590;2023-07-29T02:29:15;99378.47;;;19.37;76.47
80945;BME280;70400;50.934;11.590;2023-07-29T02:30:06;99381.84;;;19.26;76.69
80945;BME280;70400;50.934;11.590;2023-07-29T02:31:14;99383.50;;;19.20;76.66
80945;BME280;70400;50.934;11.590;2023-07-29T02:32:06;99380.66;;;19.15;77.04
80945;BME280;70400;50.934;11.590;2023-07-29T02:32:57;99389.09;;;19.12;77.00
80945;BME280;70400;50.934;11.590;2023-07-29T02:33:51;99383.59;;;19.00;77.79
80945;BME280;70400;50.934;11.590;2023-07-29T02:34:42;99383.47;;;18.89;78.10
80945;BME280;70400;50.934;11.590;2023-07-29T02:35:33;99384.91;;;18.84;78.17
80945;BME280;70400;50.934;11.590;2023-07-29T02:36:24;99387.53;;;18.98;77.77
80945;BME280;70400;50.934;11.590;2023-07-29T02:37:14;99394.28;;;19.00;77.75
80945;BME280;70400;50.934;11.590;2023-07-29T02:38:05;99395.78;;;18.90;78.38
80945;BME280;70400;50.934;11.590;2023-07-29T02:38:56;99402.19;;;18.82;78.42
80945;BME280;70400;50.934;11.590;2023-07-29T02:39:47;99401.50;;;19.00;77.76
80945;BME280;70400;50.934;11.590;2023-07-29T02:40:38;99400.84;;;19.11;76.98
80945;BME280;70400;50.934;11.590;2023-07-29T02:41:29;99399.63;;;19.00;78.01
80945;BME280;70400;50.934;11.590;2023-07-29T02:42:20;99405.22;;;18.99;77.79
80945;BME280;70400;50.934;11.590;2023-07-29T02:43:11;99408.44;;;19.07;77.04
80945;BME280;70400;50.934;11.590;2023-07-29T02:44:02;99404.72;;;19.15;76.61
80945;BME280;70400;50.934;11.590;2023-07-29T02:44:53;99409.63;;;19.18;77.02
80945;BME280;70400;50.934;11.590;2023-07-29T02:45:46;99409.44;;;19.13;76.86
80945;BME280;70400;50.934;11.590;2023-07-29T02:46:37;99408.19;;;19.16;76.22
80945;BME280;70400;50.934;11.590;2023-07-29T02:47:29;99406.13;;;19.18;76.27
80945;BME280;70400;50.934;11.590;2023-07-29T02:48:20;99404.72;;;19.15;76.70
80945;BME280;70400;50.934;11.590;2023-07-29T02:49:11;99401.72;;;18.98;77.40
80945;BME280;70400;50.934;11.590;2023-07-29T02:50:03;99407.88;;;18.99;77.61
80945;BME280;70400;50.934;11.590;2023-07-29T02:50:54;99405.28;;;18.85;77.95
80945;BME280;70400;50.934;11.590;2023-07-29T02:51:45;99407.72;;;18.87;77.66
80945;BME280;70400;50.934;11.590;2023-07-29T02:52:36;99400.53;;;18.74;77.97
80945;BME280;70400;50.934;11.590;2023-07-29T02:53:27;99400.75;;;18.79;77.87
80945;BME280;70400;50.934;11.590;2023-07-29T02:54:18;99402.00;;;18.83;77.59
80945;BME280;70400;50.934;11.590;2023-07-29T02:55:08;99403.63;;;18.71;78.07
80945;BME280;70400;50.934;11.590;2023-07-29T02:55:59;99408.78;;;18.66;78.97
80945;BME280;70400;50.934;11.590;2023-07-29T02:56:50;99407.34;;;18.70;78.76
80945;BME280;70400;50.934;11.590;2023-07-29T02:57:41;99411.25;;;18.68;78.76
80945;BME280;70400;50.934;11.590;2023-07-29T02:58:35;99401.16;;;18.70;78.46
80945;BME280;70400;50.934;11.590;2023-07-29T02:59:26;99403.44;;;18.73;78.23
80945;BME280;70400;50.934;11.590;2023-07-29T03:00:17;99402.81;;;18.71;77.96
80945;BME280;70400;50.934;11.590;2023-07-29T03:01:08;99400.56;;;18.68;78.04
80945;BME280;70400;50.934;11.590;2023-07-29T03:02:00;99399.09;;;18.72;78.14
80945;BME280;70400;50.934;11.590;2023-07-29T03:02:50;99390.06;;;18.86;77.20
80945;BME280;70400;50.934;11.590;2023-07-29T03:03:41;99395.41;;;18.79;77.81
80945;BME280;70400;50.934;11.590;2023-07-29T03:04:32;99394.00;;;18.70;78.27
80945;BME280;70400;50.934;11.590;2023-07-29T03:05:27;99392.34;;;18.69;77.99
80945;BME280;70400;50.934;11.590;2023-07-29T03:06:18;99391.53;;;18.75;77.73
80945;BME280;70400;50.934;11.590;2023-07-29T03:07:09;99389.84;;;18.74;78.13
80945;BME280;70400;50.934;11.590;2023-07-29T03:08:00;99390.72;;;18.68;78.25
80945;BME280;70400;50.934;11.590;2023-07-29T03:08:51;99396.06;;;18.68;78.37
80945;BME280;70400;50.934;11.590;2023-07-29T03:09:42;99392.97;;;18.64;78.41
80945;BME280;70400;50.934;11.590;2023-07-29T03:10:35;99391.31;;;18.70;78.01
80945;BME280;70400;50.934;11.590;2023-07-29T03:11:26;99390.66;;;18.75;78.04
80945;BME280;70400;50.934;11.590;2023-07-29T03:12:17;99397.06;;;18.74;78.00
80945;BME280;70400;50.934;11.590;2023-07-29T03:13:08;99395.22;;;18.81;77.79
80945;BME280;70400;50.934;11.590;2023-07-29T03:13:59;99394.81;;;18.71;78.23
80945;BME280;70400;50.934;11.590;2023-07-29T03:14:53;99395.63;;;18.64;78.51
80945;BME280;70400;50.934;11.590;2023-07-29T03:15:44;99393.38;;;18.61;78.64
80945;BME280;70400;50.934;11.590;2023-07-29T03:16:35;99393.81;;;18.65;79.10
80945;BME280;70400;50.934;11.590;2023-07-29T03:17:27;99397.25;;;18.72;78.27
80945;BME280;70400;50.934;11.590;2023-07-29T03:18:17;99394.38;;;18.74;77.51
80945;BME280;70400;50.934;11.590;2023-07-29T03:19:08;99393.56;;;18.73;78.25
80945;BME280;70400;50.934;11.590;2023-07-29T03:19:59;99401.59;;;18.73;78.22
80945;BME280;70400;50.934;11.590;2023-07-29T03:20:50;99401.78;;;18.72;78.23
80945;BME280;70400;50.934;11.590;2023-07-29T03:21:41;99396.88;;;18.75;78.29
80945;BME280;70400;50.934;11.590;2023-07-29T03:22:32;99403.00;;;18.82;77.56
80945;BME280;70400;50.934;11.590;2023-07-29T03:23:22;99391.69;;;18.87;77.18
80945;BME280;70400;50.934;11.590;2023-07-29T03:24:13;99392.50;;;18.87;77.38
80945;BME280;70400;50.934;11.590;2023-07-29T03:25:05;99395.59;;;18.84;77.19
80945;BME280;70400;50.934;11.590;2023-07-29T03:25:57;99392.69;;;18.93;77.01
80945;BME280;70400;50.934;11.590;2023-07-29T03:26:48;99397.81;;;18.94;76.52
80945;BME280;70400;50.934;11.590;2023-07-29T03:27:39;99392.31;;;18.89;76.70
80945;BME280;70400;50.934;11.590;2023-07-29T03:28:33;99385.50;;;18.93;76.62
80945;BME280;70400;50.934;11.590;2023-07-29T03:29:24;99382.84;;;18.93;77.04
80945;BME280;70400;50.934;11.590;2023-07-29T03:30:15;99389.88;;;18.81;77.43
80945;BME280;70400;50.934;11.590;2023-07-29T03:31:10;99384.47;;;18.87;76.45
80945;BME280;70400;50.934;11.590;2023-07-29T03:32:00;99391.13;;;18.78;76.73
80945;BME280;70400;50.934;11.590;2023-07-29T03:32:52;99386.19;;;18.75;77.19
80945;BME280;70400;50.934;11.590;2023-07-29T03:33:43;99387.63;;;18.64;77.73
80945;BME280;70400;50.934;11.590;2023-07-29T03:34:34;99388.66;;;18.70;77.42
80945;BME280;70400;50.934;11.590;2023-07-29T03:35:25;99392.97;;;18.64;77.68
80945;BME280;70400;50.934;11.590;2023-07-29T03:36:16;99395.25;;;18.68;77.43
80945;BME280;70400;50.934;11.590;2023-07-29T03:37:07;99395.25;;;18.68;77.56
80945;BME280;70400;50.934;11.590;2023-07-29T03:37:58;99389.06;;;18.67;77.32
80945;BME280;70400;50.934;11.590;2023-07-29T03:38:49;99389.91;;;18.61;77.55
80945;BME280;70400;50.934;11.590;2023-07-29T03:39:40;99395.66;;;18.58;78.33
80945;BME280;70400;50.934;11.590;2023-07-29T03:40:30;99387.03;;;18.56;78.14
80945;BME280;70400;50.934;11.590;2023-07-29T03:41:21;99386.03;;;18.50;78.36
80945;BME280;70400;50.934;11.590;2023-07-29T03:42:12;99390.34;;;18.51;78.01
80945;BME280;70400;50.934;11.590;2023-07-29T03:43:03;99385.22;;;18.50;78.42
80945;BME280;70400;50.934;11.590;2023-07-29T03:43:55;99383.56;;;18.55;78.46
80945;BME280;70400;50.934;11.590;2023-07-29T03:44:45;99381.69;;;18.56;78.50
80945;BME280;70400;50.934;11.590;2023-07-29T03:45:37;99383.53;;;18.62;78.50
80945;BME280;70400;50.934;11.590;2023-07-29T03:46:29;99372.25;;;18.60;78.08
80945;BME280;70400;50.934;11.590;2023-07-29T03:47:20;99376.16;;;18.57;78.38
80945;BME280;70400;50.934;11.590;2023-07-29T03:48:11;99372.66;;;18.57;78.20
80945;BME280;70400;50.934;11.590;2023-07-29T03:49:02;99367.34;;;18.50;78.48
80945;BME280;70400;50.934;11.590;2023-07-29T03:49:53;99373.94;;;18.48;78.50
80945;BME280;70400;50.934;11.590;2023-07-29T03:50:46;99374.53;;;18.43;78.81
80945;BME280;70400;50.934;11.590;2023-07-29T03:51:37;99375.16;;;18.45;78.71
80945;BME280;70400;50.934;11.590;2023-07-29T03:52:28;99367.78;;;18.47;78.39
80945;BME280;70400;50.934;11.590;2023-07-29T03:53:19;99366.72;;;18.41;78.57
80945;BME280;70400;50.934;11.590;2023-07-29T03:54:10;99368.41;;;18.36;78.67
80945;BME280;70400;50.934;11.590;2023-07-29T03:55:00;99365.53;;;18.37;78.64
80945;BME280;70400;50.934;11.590;2023-07-29T03:55:51;99363.44;;;18.46;78.27
80945;BME280;70400;50.934;11.590;2023-07-29T03:56:42;99370.81;;;18.51;78.54
80945;BME280;70400;50.934;11.590;2023-07-29T03:57:33;99364.25;;;18.53;78.14
80945;BME280;70400;50.934;11.590;2023-07-29T03:58:24;99365.66;;;18.62;77.64
80945;BME280;70400;50.934;11.590;2023-07-29T03:59:15;99361.50;;;18.80;76.81
80945;BME280;70400;50.934;11.590;2023-07-29T04:00:06;99370.84;;;19.09;75.89
80945;BME280;70400;50.934;11.590;2023-07-29T04:01:05;99356.19;;;19.50;74.35
80945;BME280;70400;50.934;11.590;2023-07-29T04:01:56;99358.09;;;19.75;73.22
80945;BME280;70400;50.934;11.590;2023-07-29T04:02:47;99359.75;;;20.37;71.55
80945;BME280;70400;50.934;11.590;2023-07-29T04:03:38;99360.53;;;20.81;69.18
80945;BME280;70400;50.934;11.590;2023-07-29T04:04:28;99351.84;;;21.28;67.80
80945;BME280;70400;50.934;11.590;2023-07-29T04:05:20;99348.34;;;21.58;66.12
80945;BME280;70400;50.934;11.590;2023-07-29T04:06:12;99350.69;;;21.89;65.36
80945;BME280;70400;50.934;11.590;2023-07-29T04:07:03;99345.22;;;22.08;64.36
80945;BME280;70400;50.934;11.590;2023-07-29T04:07:54;99346.97;;;22.14;63.65
80945;BME280;70400;50.934;11.590;2023-07-29T04:08:45;99347.94;;;22.20;63.24
80945;BME280;70400;50.934;11.590;2023-07-29T04:09:37;99346.59;;;22.46;62.14
80945;BME280;70400;50.934;11.590;2023-07-29T04:10:28;99340.13;;;22.70;61.41
80945;BME280;70400;50.934;11.590;2023-07-29T04:11:19;99347.06;;;22.95;60.90
80945;BME280;70400;50.934;11.590;2023-07-29T04:12:13;99341.22;;;23.27;60.02
80945;BME280;70400;50.934;11.590;2023-07-29T04:13:04;99342.16;;;23.66;58.19
80945;BME280;70400;50.934;11.590;2023-07-29T04:13:55;99343.16;;;23.77;58.09
80945;BME280;70400;50.934;11.590;2023-07-29T04:14:46;99342.53;;;24.09;56.64
80945;BME280;70400;50.934;11.590;2023-07-29T04:15:36;99346.38;;;24.13;56.49
80945;BME280;70400;50.934;11.590;2023-07-29T04:16:27;99350.25;;;24.39;55.60
80945;BME280;70400;50.934;11.590;2023-07-29T04:17:19;99346.91;;;24.48;54.96
80945;BME280;70400;50.934;11.590;2023-07-29T04:18:11;99339.91;;;24.31;55.14
80945;BME280;70400;50.934;11.590;2023-07-29T04:19:02;99347.25;;;24.18;56.07
80945;BME280;70400;50.934;11.590;2023-07-29T04:19:53;99339.38;;;24.34;55.45
80945;BME280;70400;50.934;11.590;2023-07-29T04:20:48;99348.03;;;24.53;54.88
80945;BME280;70400;50.934;11.590;2023-07-29T04:21:39;99337.25;;;24.53;54.90
80945;BME280;70400;50.934;11.590;2023-07-29T04:22:29;99339.28;;;24.89;53.96
80945;BME280;70400;50.934;11.590;2023-07-29T04:23:20;99336.47;;;25.28;52.78
80945;BME280;70400;50.934;11.590;2023-07-29T04:24:11;99338.28;;;25.50;52.02
80945;BME280;70400;50.934;11.590;2023-07-29T04:25:02;99349.75;;;25.62;51.08
80945;BME280;70400;50.934;11.590;2023-07-29T04:25:55;99344.34;;;25.99;50.65
80945;BME280;70400;50.934;11.590;2023-07-29T04:26:46;99351.81;;;26.25;50.04
80945;BME280;70400;50.934;11.590;2023-07-29T04:27:36;99353.97;;;26.28;50.05
80945;BME280;70400;50.934;11.590;2023-07-29T04:28:27;99356.47;;;25.92;50.79
80945;BME280;70400;50.934;11.590;2023-07-29T04:29:18;99352.72;;;25.98;50.67
80945;BME280;70400;50.934;11.590;2023-07-29T04:30:09;99351.28;;;25.53;52.01
80945;BME280;70400;50.934;11.590;2023-07-29T04:31:00;99348.47;;;26.55;49.75
80945;BME280;70400;50.934;11.590;2023-07-29T04:31:52;99355.06;;;26.74;49.02
80945;BME280;70400;50.934;11.590;2023-07-29T04:32:43;99348.44;;;27.18;47.55
80945;BME280;70400;50.934;11.590;2023-07-29T04:33:35;99348.88;;;26.99;47.96
80945;BME280;70400;50.934;11.590;2023-07-29T04:34:27;99352.69;;;27.03;48.31
80945;BME280;70400;50.934;11.590;2023-07-29T04:35:18;99346.44;;;26.93;48.34
80945;BME280;70400;50.934;11.590;2023-07-29T04:36:08;99348.28;;;26.77;48.73
80945;BME280;70400;50.934;11.590;2023-07-29T04:37:00;99344.09;;;27.32;47.60
80945;BME280;70400;50.934;11.590;2023-07-29T04:37:51;99338.19;;;27.91;45.59
80945;BME280;70400;50.934;11.590;2023-07-29T04:38:42;99344.09;;;27.93;45.44
80945;BME280;70400;50.934;11.590;2023-07-29T04:39:33;99337.81;;;28.19;44.95